Time;durP1;ratioP1;P1;durP2;ratioP2;P2;SDS_P1;SDS_P2;PMS_P1;PMS_P2;Temp;Humidity;BMP_temperature;BMP_pressure;BME280_temperature;BME280_humidity;BME280_pressure;Samples;Min_cycle;Max_cycle;Signal;HPM_P1;HPM_P2
2022/03/25 00:00:04;;;;;;;63.10;33.97;;;6.30;99.90;;;;;;5081896;28;20360;-45
2022/03/25 00:02:31;;;;;;;61.20;34.57;;;6.10;99.90;;;;;;5077706;28;20278;-46
2022/03/25 00:04:58;;;;;;;73.60;36.20;;;6.10;99.90;;;;;;5075633;27;20213;-44
2022/03/25 00:07:27;;;;;;;66.33;36.57;;;6.00;99.90;;;;;;5095756;27;20283;-46
2022/03/25 00:09:54;;;;;;;70.13;36.67;;;6.00;99.90;;;;;;5066094;28;20206;-44
2022/03/25 00:12:21;;;;;;;72.27;36.83;;;6.00;99.90;;;;;;5092765;27;20210;-45
2022/03/25 00:14:48;;;;;;;70.03;36.33;;;6.00;99.90;;;;;;5071497;28;20521;-44
2022/03/25 00:17:15;;;;;;;73.63;37.57;;;5.90;99.90;;;;;;5086973;28;20278;-45
2022/03/25 00:19:42;;;;;;;67.60;37.27;;;5.90;99.90;;;;;;5070511;28;20227;-45
2022/03/25 00:22:08;;;;;;;74.20;37.67;;;5.90;99.90;;;;;;5082570;28;20278;-48
2022/03/25 00:24:37;;;;;;;86.93;42.23;;;6.00;99.90;;;;;;5096055;28;20575;-45
2022/03/25 00:27:04;;;;;;;81.43;41.37;;;6.10;99.90;;;;;;5079510;28;20315;-46
2022/03/25 00:29:31;;;;;;;80.60;41.40;;;5.90;99.90;;;;;;5080202;27;20213;-44
2022/03/25 00:31:58;;;;;;;78.47;40.67;;;5.90;99.90;;;;;;5073793;28;21017;-44
2022/03/25 00:34:25;;;;;;;79.47;41.37;;;5.90;99.90;;;;;;5081252;28;20620;-43
2022/03/25 00:36:52;;;;;;;85.60;41.50;;;6.10;99.90;;;;;;5069161;27;20220;-49
2022/03/25 00:39:19;;;;;;;75.40;40.83;;;6.20;99.90;;;;;;5090878;28;20290;-43
2022/03/25 00:41:47;;;;;;;81.97;40.80;;;6.20;99.90;;;;;;5076925;28;20310;-49
2022/03/25 00:44:17;;;;;;;71.13;39.53;;;6.20;99.90;;;;;;5089237;28;20775;-50
2022/03/25 00:46:44;;;;;;;74.33;39.03;;;6.20;99.90;;;;;;5081297;27;20210;-47
2022/03/25 00:49:11;;;;;;;68.67;38.40;;;6.20;99.90;;;;;;5077462;28;20250;-49
2022/03/25 00:51:38;;;;;;;69.37;38.23;;;6.10;99.90;;;;;;5059710;28;20236;-48
2022/03/25 00:54:05;;;;;;;73.13;38.30;;;6.30;99.90;;;;;;5080424;28;20327;-44
2022/03/25 00:56:32;;;;;;;61.93;35.00;;;6.30;99.90;;;;;;5076329;28;20234;-43
2022/03/25 00:59:00;;;;;;;62.27;34.43;;;6.10;99.90;;;;;;5070230;27;20832;-46
2022/03/25 01:01:27;;;;;;;63.33;32.80;;;6.00;99.90;;;;;;5070821;28;20209;-44
2022/03/25 01:03:54;;;;;;;67.50;34.60;;;5.90;99.90;;;;;;5081015;28;20227;-48
2022/03/25 01:06:21;;;;;;;64.03;35.97;;;5.70;99.90;;;;;;5075750;28;20586;-43
2022/03/25 01:08:48;;;;;;;63.13;34.13;;;5.50;99.90;;;;;;5068371;28;20208;-49
2022/03/25 01:11:15;;;;;;;65.97;35.67;;;5.40;99.90;;;;;;5092163;28;20210;-45
2022/03/25 01:13:42;;;;;;;58.17;32.77;;;5.40;99.90;;;;;;5080562;28;20302;-49
2022/03/25 01:16:10;;;;;;;60.70;32.70;;;5.50;99.90;;;;;;5064108;28;20281;-45
2022/03/25 01:18:37;;;;;;;58.10;32.07;;;5.50;99.90;;;;;;5085372;28;20285;-48
2022/03/25 01:21:04;;;;;;;66.63;35.33;;;5.50;99.90;;;;;;5082084;28;20349;-44
2022/03/25 01:23:31;;;;;;;63.87;33.67;;;5.60;99.90;;;;;;5083358;27;20234;-48
2022/03/25 01:25:58;;;;;;;68.30;35.10;;;5.60;99.90;;;;;;5082137;28;20280;-49
2022/03/25 01:28:25;;;;;;;68.53;36.57;;;5.60;99.90;;;;;;5083090;28;20295;-43
2022/03/25 01:30:52;;;;;;;59.67;33.27;;;5.60;99.90;;;;;;5080394;28;20200;-47
2022/03/25 01:33:20;;;;;;;61.10;34.50;;;5.60;99.90;;;;;;5098950;28;20235;-44
2022/03/25 01:35:47;;;;;;;65.33;32.83;;;5.60;99.90;;;;;;5051609;28;20211;-49
2022/03/25 01:38:14;;;;;;;63.60;33.50;;;5.60;99.90;;;;;;5088131;27;20277;-45
2022/03/25 01:40:41;;;;;;;63.93;33.87;;;5.50;99.90;;;;;;5095588;28;20567;-48
2022/03/25 01:43:08;;;;;;;64.07;34.73;;;5.40;99.90;;;;;;5068482;28;20678;-44
2022/03/25 01:45:36;;;;;;;61.23;32.03;;;5.40;99.90;;;;;;5086453;27;20218;-45
2022/03/25 01:48:09;;;;;;;59.87;31.90;;;5.40;99.90;;;;;;5078344;28;20697;-44
2022/03/25 01:50:38;;;;;;;63.77;33.03;;;5.40;99.90;;;;;;5084734;28;20219;-45
2022/03/25 01:53:10;;;;;;;62.40;34.33;;;5.30;99.90;;;;;;5081326;27;20420;-44
2022/03/25 01:55:39;;;;;;;62.10;32.33;;;5.20;99.90;;;;;;5088696;27;20562;-45
2022/03/25 01:58:06;;;;;;;54.90;32.13;;;5.20;99.90;;;;;;5079747;27;20191;-45
2022/03/25 02:00:34;;;;;;;68.00;36.77;;;5.00;99.90;;;;;;5084823;28;20802;-46
2022/03/25 02:03:02;;;;;;;67.30;36.10;;;5.10;99.90;;;;;;5092760;28;20238;-44
2022/03/25 02:05:29;;;;;;;67.07;35.67;;;5.10;99.90;;;;;;5078739;27;20203;-48
2022/03/25 02:07:57;;;;;;;65.53;34.27;;;5.00;99.90;;;;;;5063791;28;20203;-45
2022/03/25 02:10:24;;;;;;;69.07;36.03;;;4.90;99.90;;;;;;5093167;27;20274;-44
2022/03/25 02:12:51;;;;;;;65.30;36.20;;;5.00;99.90;;;;;;5083460;27;20304;-45
2022/03/25 02:15:18;;;;;;;67.70;35.63;;;5.10;99.90;;;;;;5083314;27;20210;-45
2022/03/25 02:17:45;;;;;;;67.37;35.73;;;5.20;99.90;;;;;;5092537;27;20582;-45
2022/03/25 02:20:12;;;;;;;73.77;37.37;;;5.30;99.90;;;;;;5091980;27;20223;-47
2022/03/25 02:22:41;;;;;;;69.63;36.43;;;5.40;99.90;;;;;;5058076;27;20451;-45
2022/03/25 02:25:11;;;;;;;72.70;37.13;;;5.30;99.90;;;;;;5094286;27;20195;-44
2022/03/25 02:27:38;;;;;;;80.53;39.33;;;5.20;99.90;;;;;;5080141;27;20263;-45
2022/03/25 02:30:07;;;;;;;72.27;38.00;;;5.10;99.90;;;;;;5069086;27;20191;-44
2022/03/25 02:32:35;;;;;;;73.57;37.27;;;5.30;99.90;;;;;;5082383;27;20729;-45
2022/03/25 02:35:02;;;;;;;62.37;34.80;;;5.20;99.90;;;;;;5093443;28;20282;-44
2022/03/25 02:37:29;;;;;;;67.83;35.40;;;5.10;99.90;;;;;;5077653;27;20218;-45
2022/03/25 02:39:57;;;;;;;66.80;35.13;;;5.00;99.90;;;;;;5071336;27;20231;-45
2022/03/25 02:42:25;;;;;;;68.73;33.83;;;5.00;99.90;;;;;;5095438;28;20245;-46
2022/03/25 02:44:52;;;;;;;66.27;34.90;;;5.00;99.90;;;;;;5072858;28;20225;-44
2022/03/25 02:47:19;;;;;;;67.53;35.27;;;4.90;99.90;;;;;;5078467;28;20283;-44
2022/03/25 02:49:46;;;;;;;63.90;34.33;;;4.90;99.90;;;;;;5078720;27;20228;-45
2022/03/25 02:52:13;;;;;;;66.53;34.70;;;4.80;99.90;;;;;;5093192;28;20223;-44
2022/03/25 02:54:40;;;;;;;61.57;33.83;;;4.80;99.90;;;;;;5080233;28;20239;-44
2022/03/25 02:57:09;;;;;;;57.23;33.17;;;4.80;99.90;;;;;;5077182;28;20744;-45
2022/03/25 02:59:36;;;;;;;68.70;36.20;;;4.70;99.90;;;;;;5079375;28;20219;-44
2022/03/25 03:02:04;;;;;;;62.00;32.03;;;4.70;99.90;;;;;;5080163;27;20247;-46
2022/03/25 03:04:30;;;;;;;62.33;31.10;;;4.70;99.90;;;;;;5092420;27;20215;-44
2022/03/25 03:06:57;;;;;;;59.03;32.17;;;4.70;99.90;;;;;;5094484;27;20208;-45
2022/03/25 03:09:24;;;;;;;55.83;29.87;;;4.60;99.90;;;;;;5085910;27;20888;-44
2022/03/25 03:11:51;;;;;;;56.27;29.03;;;4.50;99.90;;;;;;5078994;28;20211;-44
2022/03/25 03:14:20;;;;;;;58.53;31.30;;;4.50;99.90;;;;;;5081631;28;20229;-46
2022/03/25 03:16:48;;;;;;;58.77;31.03;;;4.50;99.90;;;;;;5083914;28;20229;-44
2022/03/25 03:19:15;;;;;;;51.63;29.73;;;4.40;99.90;;;;;;5085062;27;20222;-45
2022/03/25 03:21:41;;;;;;;56.43;31.43;;;4.40;99.90;;;;;;5086209;27;20203;-45
2022/03/25 03:24:08;;;;;;;57.73;31.27;;;4.40;99.90;;;;;;5070794;27;20233;-44
2022/03/25 03:26:35;;;;;;;60.37;30.47;;;4.40;99.90;;;;;;5089649;27;20211;-46
2022/03/25 03:29:05;;;;;;;66.33;33.87;;;4.30;99.90;;;;;;5097677;28;20204;-43
2022/03/25 03:31:33;;;;;;;62.53;33.03;;;4.20;99.90;;;;;;5069108;27;20203;-44
2022/03/25 03:34:00;;;;;;;57.87;33.17;;;4.20;99.90;;;;;;5084265;27;20233;-45
2022/03/25 03:36:27;;;;;;;59.20;31.57;;;4.20;99.90;;;;;;5089568;27;20275;-43
2022/03/25 03:38:54;;;;;;;58.57;31.10;;;4.10;99.90;;;;;;5077834;28;20234;-44
2022/03/25 03:41:20;;;;;;;57.03;30.97;;;4.00;99.90;;;;;;5075002;27;20223;-44
2022/03/25 03:43:47;;;;;;;60.67;31.33;;;4.10;99.90;;;;;;5087650;27;20227;-43
2022/03/25 03:46:14;;;;;;;55.27;30.37;;;4.10;99.90;;;;;;5079551;28;20330;-45
2022/03/25 03:48:43;;;;;;;53.47;29.57;;;4.10;99.90;;;;;;5089460;27;20200;-45
2022/03/25 03:51:10;;;;;;;65.37;33.93;;;4.10;99.90;;;;;;5073490;27;20227;-45
2022/03/25 03:53:37;;;;;;;66.93;33.97;;;4.20;99.90;;;;;;5098582;27;20295;-45
2022/03/25 03:56:04;;;;;;;62.67;32.93;;;4.10;99.90;;;;;;5067562;28;20211;-44
2022/03/25 03:58:31;;;;;;;59.67;31.63;;;4.10;99.90;;;;;;5095221;27;20425;-45
2022/03/25 04:00:58;;;;;;;56.57;29.23;;;4.20;99.90;;;;;;5092628;28;20277;-43
2022/03/25 04:03:26;;;;;;;54.57;28.20;;;4.20;99.90;;;;;;5080386;28;20233;-45
2022/03/25 04:05:55;;;;;;;60.20;30.57;;;4.10;99.90;;;;;;5091918;28;20212;-46
2022/03/25 04:08:23;;;;;;;53.20;28.27;;;4.00;99.90;;;;;;5092469;27;20203;-45
2022/03/25 04:10:50;;;;;;;45.73;25.70;;;4.00;99.90;;;;;;5093575;27;20398;-48
2022/03/25 04:13:17;;;;;;;53.30;26.93;;;3.90;99.90;;;;;;5086278;28;20295;-45
2022/03/25 04:15:43;;;;;;;48.07;27.00;;;3.80;99.90;;;;;;5094861;28;20262;-44
2022/03/25 04:18:10;;;;;;;51.07;26.63;;;3.70;99.90;;;;;;5077699;28;21172;-45
2022/03/25 04:20:37;;;;;;;46.67;24.10;;;3.70;99.90;;;;;;5081971;27;20291;-45
2022/03/25 04:23:06;;;;;;;39.33;23.57;;;3.80;99.90;;;;;;5079812;28;20254;-46
2022/03/25 04:25:33;;;;;;;37.80;21.67;;;3.80;99.90;;;;;;5094779;28;20203;-44
2022/03/25 04:28:01;;;;;;;35.80;20.50;;;3.80;99.90;;;;;;5077605;28;20326;-46
2022/03/25 04:30:29;;;;;;;44.90;24.77;;;3.60;99.90;;;;;;5091790;28;20215;-44
2022/03/25 04:32:58;;;;;;;50.70;27.10;;;3.50;99.90;;;;;;5090445;27;20266;-47
2022/03/25 04:35:28;;;;;;;47.00;26.60;;;3.50;99.90;;;;;;5082362;28;20252;-44
2022/03/25 04:37:55;;;;;;;46.47;26.07;;;3.60;99.90;;;;;;5087875;28;20279;-46
2022/03/25 04:40:26;;;;;;;54.43;28.33;;;3.60;99.90;;;;;;5094122;27;20261;-44
2022/03/25 04:42:54;;;;;;;50.37;26.97;;;3.70;99.90;;;;;;5062269;27;20227;-46
2022/03/25 04:45:23;;;;;;;55.73;26.33;;;3.50;99.90;;;;;;5074998;28;20614;-44
2022/03/25 04:47:50;;;;;;;51.47;28.77;;;3.50;99.90;;;;;;5083262;28;20208;-46
2022/03/25 04:50:17;;;;;;;57.97;29.80;;;3.60;99.90;;;;;;5066601;28;20318;-44
2022/03/25 04:52:45;;;;;;;60.73;29.57;;;3.70;99.90;;;;;;5082319;28;20262;-44
2022/03/25 04:55:12;;;;;;;61.40;31.20;;;3.60;99.90;;;;;;5089107;28;20275;-46
2022/03/25 04:57:41;;;;;;;55.40;28.53;;;3.50;99.90;;;;;;5078131;28;20199;-44
2022/03/25 05:00:09;;;;;;;52.50;29.17;;;3.70;99.90;;;;;;5093326;28;20350;-46
2022/03/25 05:02:36;;;;;;;58.10;30.00;;;3.80;99.90;;;;;;5070897;27;20319;-45
2022/03/25 05:05:04;;;;;;;59.23;30.20;;;3.70;99.90;;;;;;5097744;27;20277;-44
2022/03/25 05:07:31;;;;;;;59.83;29.27;;;3.70;99.90;;;;;;5060725;28;20208;-44
2022/03/25 05:09:58;;;;;;;51.50;28.70;;;3.70;99.90;;;;;;5096825;28;20213;-44
2022/03/25 05:12:25;;;;;;;47.40;24.70;;;3.60;99.90;;;;;;5045651;28;20225;-46
2022/03/25 05:14:54;;;;;;;45.00;24.00;;;3.50;99.90;;;;;;5088420;28;20237;-44
2022/03/25 05:17:21;;;;;;;41.20;23.67;;;3.40;99.90;;;;;;5074752;28;20287;-46
2022/03/25 05:19:47;;;;;;;46.10;24.80;;;3.20;99.90;;;;;;5091073;28;20259;-45
2022/03/25 05:22:14;;;;;;;38.27;21.40;;;3.00;99.90;;;;;;5061023;28;20640;-46
2022/03/25 05:24:41;;;;;;;41.57;21.47;;;2.90;99.90;;;;;;5085126;28;20224;-44
2022/03/25 05:27:08;;;;;;;39.20;20.13;;;3.00;99.90;;;;;;5079572;28;20209;-46
2022/03/25 05:29:35;;;;;;;40.00;23.13;;;3.00;99.90;;;;;;5062221;28;20282;-44
2022/03/25 05:32:04;;;;;;;47.40;24.30;;;3.00;99.90;;;;;;5079582;28;20589;-44
2022/03/25 05:34:31;;;;;;;44.47;24.20;;;3.10;99.90;;;;;;5072409;28;20223;-45
2022/03/25 05:36:57;;;;;;;46.60;25.50;;;3.20;99.90;;;;;;5069959;28;20210;-44
2022/03/25 05:39:24;;;;;;;55.60;28.53;;;3.20;99.90;;;;;;5073969;28;20585;-46
2022/03/25 05:41:51;;;;;;;46.77;24.80;;;3.20;99.90;;;;;;5066594;28;20293;-44
2022/03/25 05:44:18;;;;;;;36.53;20.23;;;3.20;99.90;;;;;;5072496;28;20292;-46
2022/03/25 05:46:45;;;;;;;37.07;21.13;;;3.30;99.90;;;;;;5067802;28;20210;-44
2022/03/25 05:49:13;;;;;;;45.70;24.03;;;3.30;99.90;;;;;;5064670;28;20611;-47
2022/03/25 05:51:40;;;;;;;39.93;21.67;;;3.30;99.90;;;;;;5059761;28;20455;-46
2022/03/25 05:54:07;;;;;;;33.70;19.40;;;3.30;99.90;;;;;;5070151;28;20233;-46
2022/03/25 05:56:34;;;;;;;35.47;20.53;;;3.30;99.90;;;;;;5076828;28;20281;-44
2022/03/25 05:59:01;;;;;;;39.47;22.57;;;3.20;99.90;;;;;;5085027;28;20226;-44
2022/03/25 06:01:29;;;;;;;45.07;25.07;;;3.20;99.90;;;;;;5062091;28;20222;-44
2022/03/25 06:03:55;;;;;;;41.00;23.57;;;3.10;99.90;;;;;;5076367;27;20557;-44
2022/03/25 06:06:24;;;;;;;67.40;22.77;;;3.00;99.90;;;;;;5076756;27;20242;-51
2022/03/25 06:08:51;;;;;;;107.07;24.83;;;3.00;99.90;;;;;;5069352;27;20269;-48
2022/03/25 06:11:18;;;;;;;145.67;25.33;;;2.90;99.90;;;;;;5074356;28;20275;-45
2022/03/25 06:13:45;;;;;;;519.33;31.30;;;3.10;99.90;;;;;;5086123;27;20225;-44
2022/03/25 06:16:12;;;;;;;592.80;30.90;;;3.00;99.90;;;;;;5050614;27;20212;-44
2022/03/25 06:18:39;;;;;;;316.80;28.53;;;2.70;99.90;;;;;;5080529;28;20299;-44
2022/03/25 06:21:06;;;;;;;317.30;27.00;;;2.60;99.90;;;;;;5085501;28;20295;-44
2022/03/25 06:23:34;;;;;;;579.60;30.83;;;2.70;99.90;;;;;;5066039;28;20566;-44
2022/03/25 06:26:01;;;;;;;552.97;29.97;;;2.60;99.90;;;;;;5092918;28;20234;-44
2022/03/25 06:28:28;;;;;;;565.37;27.50;;;2.50;99.90;;;;;;5075741;27;20573;-44
2022/03/25 06:30:55;;;;;;;669.07;30.53;;;2.60;99.90;;;;;;5065660;27;20505;-44
2022/03/25 06:33:22;;;;;;;654.83;28.57;;;2.50;99.90;;;;;;5086859;28;20304;-44
2022/03/25 06:35:51;;;;;;;396.37;25.33;;;2.50;99.90;;;;;;5059920;28;20208;-44
2022/03/25 06:38:18;;;;;;;388.53;25.60;;;2.60;99.90;;;;;;5097280;27;20203;-44
2022/03/25 06:40:46;;;;;;;238.57;24.63;;;2.60;99.90;;;;;;5085761;27;20931;-44
2022/03/25 06:43:13;;;;;;;221.13;22.93;;;2.70;99.90;;;;;;5101076;28;20830;-44
2022/03/25 06:45:40;;;;;;;93.67;21.00;;;2.90;99.90;;;;;;5081644;27;20601;-46
2022/03/25 06:48:08;;;;;;;181.43;21.63;;;3.00;99.90;;;;;;5096996;27;20219;-44
2022/03/25 06:50:35;;;;;;;108.17;21.63;;;3.10;99.90;;;;;;5096775;28;20238;-46
2022/03/25 06:53:04;;;;;;;52.37;21.63;;;3.20;99.90;;;;;;5090326;27;20488;-44
2022/03/25 06:55:32;;;;;;;33.27;20.90;;;3.40;99.90;;;;;;5089078;27;20408;-46
2022/03/25 06:58:01;;;;;;;35.27;21.23;;;3.60;99.90;;;;;;5093414;28;20281;-44
2022/03/25 07:00:28;;;;;;;33.90;21.27;;;3.90;99.90;;;;;;5098845;27;20475;-46
2022/03/25 07:02:55;;;;;;;44.23;22.87;;;4.00;99.90;;;;;;5081058;27;20232;-49
2022/03/25 07:05:24;;;;;;;36.10;22.63;;;4.10;99.90;;;;;;5098323;27;20566;-43
2022/03/25 07:07:52;;;;;;;38.83;23.37;;;4.30;99.90;;;;;;5084253;28;20472;-44
2022/03/25 07:10:23;;;;;;;42.27;24.40;;;4.40;99.90;;;;;;5085611;27;20590;-42
2022/03/25 07:12:51;;;;;;;51.67;25.07;;;4.60;99.90;;;;;;5095306;28;20684;-44
2022/03/25 07:15:20;;;;;;;60.60;25.33;;;4.70;99.90;;;;;;5099648;27;20204;-45
2022/03/25 07:17:47;;;;;;;41.37;22.43;;;4.80;99.90;;;;;;5082755;27;20408;-43
2022/03/25 07:20:16;;;;;;;51.10;27.50;;;5.00;99.90;;;;;;5100943;27;20500;-44
2022/03/25 07:22:44;;;;;;;59.23;32.07;;;5.00;99.90;;;;;;5089248;27;20297;-48
2022/03/25 07:25:11;;;;;;;54.13;30.40;;;5.20;99.90;;;;;;5097393;28;20309;-43
2022/03/25 07:27:38;;;;;;;57.23;32.87;;;5.30;99.90;;;;;;5083710;27;20565;-46
2022/03/25 07:30:07;;;;;;;54.83;32.70;;;5.40;99.90;;;;;;5104618;28;20487;-44
2022/03/25 07:32:35;;;;;;;62.67;36.03;;;5.60;99.90;;;;;;5084088;28;20613;-46
2022/03/25 07:35:02;;;;;;;78.80;38.10;;;5.60;99.90;;;;;;5097994;27;20643;-44
2022/03/25 07:37:29;;;;;;;72.17;39.37;;;5.80;99.90;;;;;;5091398;27;20222;-44
2022/03/25 07:39:55;;;;;;;60.63;35.50;;;5.90;99.90;;;;;;5094389;27;20204;-44
2022/03/25 07:42:22;;;;;;;80.00;41.80;;;6.00;99.90;;;;;;5088131;27;20240;-45
2022/03/25 07:44:49;;;;;;;80.57;41.37;;;6.10;99.90;;;;;;5096907;27;20218;-44
2022/03/25 07:47:16;;;;;;;82.73;40.17;;;6.20;99.90;;;;;;5098358;28;20233;-45
2022/03/25 07:49:45;;;;;;;97.90;42.20;;;6.30;99.90;;;;;;5079888;28;20278;-45
2022/03/25 07:52:12;;;;;;;82.47;42.70;;;6.40;99.90;;;;;;5096347;27;20220;-44
2022/03/25 07:54:39;;;;;;;87.27;44.27;;;6.50;99.90;;;;;;5081609;27;20326;-45
2022/03/25 07:57:06;;;;;;;84.87;43.53;;;6.70;99.90;;;;;;5081340;27;20301;-45
2022/03/25 07:59:34;;;;;;;89.77;45.90;;;6.80;99.90;;;;;;5097330;28;20204;-45
2022/03/25 08:02:00;;;;;;;101.07;49.33;;;6.90;99.90;;;;;;5092712;27;20542;-44
2022/03/25 08:04:27;;;;;;;98.13;48.47;;;6.90;99.90;;;;;;5083696;28;20251;-48
2022/03/25 08:06:55;;;;;;;98.67;50.03;;;7.00;99.90;;;;;;5092774;27;20423;-44
2022/03/25 08:09:22;;;;;;;94.53;48.70;;;7.10;99.90;;;;;;5091279;28;20543;-46
2022/03/25 08:11:49;;;;;;;96.70;49.00;;;7.20;99.90;;;;;;5095158;28;20432;-46
2022/03/25 08:14:17;;;;;;;89.73;46.33;;;7.30;99.90;;;;;;5086807;28;20230;-43
2022/03/25 08:16:45;;;;;;;89.40;47.07;;;7.40;99.90;;;;;;5096787;28;20204;-49
2022/03/25 08:19:12;;;;;;;88.20;47.13;;;7.50;99.90;;;;;;5101243;28;20245;-47
2022/03/25 08:21:39;;;;;;;89.93;47.90;;;7.50;99.90;;;;;;5080165;28;20249;-48
2022/03/25 08:29:36;;;;;;;101.23;52.63;;;7.90;99.90;;;;;;5084708;28;20397;-48
2022/03/25 08:32:04;;;;;;;91.07;48.17;;;7.90;99.90;;;;;;5101894;28;20516;-44
2022/03/25 08:34:31;;;;;;;84.63;44.57;;;8.00;99.90;;;;;;5085898;28;20235;-49
2022/03/25 08:36:58;;;;;;;81.30;45.40;;;8.10;99.90;;;;;;5076720;27;20729;-48
2022/03/25 08:39:26;;;;;;;89.37;44.47;;;8.10;99.90;;;;;;5093605;27;20450;-48
2022/03/25 08:41:53;;;;;;;84.00;44.70;;;8.20;99.90;;;;;;5085400;27;20472;-45
2022/03/25 08:44:20;;;;;;;84.90;45.90;;;8.30;99.90;;;;;;5083341;28;20422;-45
2022/03/25 08:46:47;;;;;;;79.63;44.03;;;8.30;99.90;;;;;;5095659;28;20629;-45
2022/03/25 08:49:14;;;;;;;82.93;45.77;;;8.40;99.90;;;;;;5098104;27;20392;-45
2022/03/25 08:51:41;;;;;;;85.60;45.00;;;8.50;99.90;;;;;;5082308;27;20274;-44
2022/03/25 08:54:09;;;;;;;77.10;43.33;;;8.60;99.90;;;;;;5097561;28;20294;-45
2022/03/25 08:56:38;;;;;;;80.87;42.93;;;8.70;99.90;;;;;;5086973;28;20382;-44
2022/03/25 08:59:04;;;;;;;81.30;43.90;;;8.80;99.90;;;;;;5093214;28;20196;-45
2022/03/25 09:01:31;;;;;;;77.20;42.83;;;8.90;99.90;;;;;;5087273;28;20230;-44
2022/03/25 09:03:58;;;;;;;78.33;43.83;;;8.90;99.90;;;;;;5091103;28;20233;-45
2022/03/25 09:06:25;;;;;;;84.53;44.00;;;9.00;99.90;;;;;;5092804;28;20207;-44
2022/03/25 09:08:52;;;;;;;81.57;41.83;;;9.20;99.90;;;;;;5074769;28;20212;-46
2022/03/25 09:11:20;;;;;;;76.27;41.87;;;9.20;99.90;;;;;;5087683;28;20207;-45
2022/03/25 09:13:48;;;;;;;78.70;41.40;;;9.20;99.90;;;;;;5092181;28;20373;-44
2022/03/25 09:16:16;;;;;;;75.17;42.77;;;9.30;99.90;;;;;;5099199;28;20202;-45
2022/03/25 09:18:43;;;;;;;76.97;40.47;;;9.40;99.90;;;;;;5087872;28;20200;-44
2022/03/25 09:21:10;;;;;;;77.90;42.20;;;9.40;99.90;;;;;;5098176;28;20208;-45
2022/03/25 09:23:37;;;;;;;73.13;40.10;;;9.50;99.90;;;;;;5078911;28;20622;-45
2022/03/25 09:26:04;;;;;;;73.10;38.67;;;9.60;99.90;;;;;;5081647;28;20200;-45
2022/03/25 09:28:31;;;;;;;67.20;38.37;;;9.60;99.90;;;;;;5096343;28;20204;-46
2022/03/25 09:31:00;;;;;;;69.90;39.83;;;9.70;99.90;;;;;;5090370;28;20438;-45
2022/03/25 09:33:27;;;;;;;64.50;38.17;;;9.80;99.90;;;;;;5101196;28;20277;-45
2022/03/25 09:35:54;;;;;;;65.93;37.87;;;9.90;99.90;;;;;;5101010;28;20324;-45
2022/03/25 09:38:20;;;;;;;67.60;38.53;;;10.00;99.90;;;;;;5103769;28;20240;-44
2022/03/25 09:40:48;;;;;;;70.30;40.37;;;10.00;99.90;;;;;;5067852;27;20856;-45
2022/03/25 09:43:15;;;;;;;67.63;38.90;;;10.00;99.90;;;;;;5101011;27;20526;-45
2022/03/25 09:45:42;;;;;;;65.10;38.70;;;10.10;99.90;;;;;;5099771;27;20206;-45
2022/03/25 09:48:11;;;;;;;63.17;39.60;;;10.10;99.90;;;;;;5090133;27;20207;-46
2022/03/25 09:50:40;;;;;;;73.40;37.50;;;10.30;99.90;;;;;;5097832;28;20249;-44
2022/03/25 09:53:08;;;;;;;61.47;37.90;;;10.30;99.90;;;;;;5102054;27;20465;-46
2022/03/25 09:55:42;;;;;;;55.37;35.13;;;10.30;99.90;;;;;;5074400;27;20564;-44
2022/03/25 09:58:10;;;;;;;55.83;33.22;;;10.40;99.90;;;;;;5098628;27;20249;-45
2022/03/25 10:00:37;;;;;;;55.10;32.40;;;10.40;99.90;;;;;;5097782;27;20203;-44
2022/03/25 10:03:04;;;;;;;49.20;29.80;;;10.50;99.90;;;;;;5078503;28;20271;-45
2022/03/25 10:05:32;;;;;;;59.40;32.90;;;10.70;99.90;;;;;;5097510;28;20234;-44
2022/03/25 10:07:59;;;;;;;53.17;31.40;;;10.80;99.90;;;;;;5096477;27;20410;-45
2022/03/25 10:10:27;;;;;;;58.23;30.90;;;10.90;99.90;;;;;;5099691;27;20603;-46
2022/03/25 10:13:00;;;;;;;49.80;30.90;;;10.90;99.90;;;;;;5085659;27;20532;-45
2022/03/25 10:15:29;;;;;;;51.90;30.33;;;10.90;99.90;;;;;;5098711;27;20437;-46
2022/03/25 10:17:57;;;;;;;59.67;32.20;;;11.00;99.90;;;;;;5098949;27;20515;-45
2022/03/25 10:20:26;;;;;;;60.40;32.60;;;11.00;99.90;;;;;;5097193;27;20226;-46
2022/03/25 10:23:04;;;;;;;55.53;32.22;;;11.20;99.90;;;;;;5103270;27;20231;-46
2022/03/25 10:25:35;;;;;;;66.30;31.83;;;11.20;99.90;;;;;;5082710;27;20211;-46
2022/03/25 10:28:03;;;;;;;52.08;30.55;;;11.40;99.90;;;;;;5079997;27;20305;-45
2022/03/25 10:30:41;;;;;;;48.20;29.42;;;11.50;99.90;;;;;;5102561;27;20390;-46
2022/03/25 10:33:10;;;;;;;50.55;30.27;;;11.50;99.90;;;;;;5105627;27;20841;-45
2022/03/25 10:35:52;;;;;;;53.88;29.30;;;11.60;99.90;;;;;;5086194;27;20456;-46
2022/03/25 10:38:21;;;;;;;51.28;29.88;;;11.60;99.90;;;;;;5103560;27;20217;-45
2022/03/25 10:40:53;;;;;;;46.78;26.80;;;11.60;99.90;;;;;;5101707;28;20351;-45
2022/03/25 10:43:21;;;;;;;46.15;27.17;;;11.60;99.90;;;;;;5088296;27;20455;-46
2022/03/25 10:45:49;;;;;;;53.17;27.55;;;11.70;99.90;;;;;;5100654;28;20467;-45
2022/03/25 10:48:18;;;;;;;51.17;28.38;;;11.80;99.90;;;;;;5102713;28;20242;-45
2022/03/25 10:51:07;;;;;;;39.60;24.50;;;11.70;99.90;;;;;;5106169;28;20293;-45
2022/03/25 10:53:37;;;;;;;41.83;25.73;;;11.80;99.90;;;;;;5099857;27;20223;-45
2022/03/25 10:56:06;;;;;;;44.53;25.30;;;11.90;99.90;;;;;;5105342;27;20279;-45
2022/03/25 10:58:35;;;;;;;43.28;22.65;;;12.00;99.90;;;;;;5086769;28;20270;-45
2022/03/25 11:01:03;;;;;;;36.90;20.67;;;12.00;99.90;;;;;;5101864;27;20252;-45
2022/03/25 11:03:30;;;;;;;35.97;20.13;;;12.10;99.90;;;;;;5085831;27;20515;-45
2022/03/25 11:05:57;;;;;;;38.28;22.20;;;12.10;99.90;;;;;;5086536;27;20526;-45
2022/03/25 11:08:25;;;;;;;40.53;21.10;;;12.20;99.90;;;;;;5087264;27;20507;-45
2022/03/25 11:10:54;;;;;;;42.05;20.67;;;12.30;99.90;;;;;;5080363;27;20278;-45
2022/03/25 11:13:23;;;;;;;37.08;19.20;;;12.40;99.90;;;;;;5078898;27;20568;-47
2022/03/25 11:15:54;;;;;;;34.13;17.67;;;12.40;99.90;;;;;;5093516;27;20245;-45
2022/03/25 11:18:22;;;;;;;43.42;20.10;;;12.40;99.90;;;;;;5095864;28;20234;-47
2022/03/25 11:20:52;;;;;;;32.83;19.25;;;12.50;99.90;;;;;;5094329;28;20253;-45
2022/03/25 11:23:24;;;;;;;45.10;20.75;;;12.60;99.90;;;;;;5099644;28;20287;-49
2022/03/25 11:25:56;;;;;;;31.15;19.42;;;12.70;99.90;;;;;;5087797;27;20211;-48
2022/03/25 11:28:30;;;;;;;29.35;18.10;;;12.80;99.90;;;;;;5060310;27;20633;-49
2022/03/25 11:30:58;;;;;;;32.47;14.82;;;12.80;99.90;;;;;;5093916;27;20419;-44
2022/03/25 11:33:25;;;;;;;23.77;12.80;;;12.90;99.90;;;;;;5095523;28;20451;-45
2022/03/25 11:36:14;;;;;;;25.88;15.38;;;13.00;99.90;;;;;;5106381;27;20266;-46
2022/03/25 11:38:41;;;;;;;28.75;14.60;;;12.90;99.90;;;;;;5098660;28;20409;-45
2022/03/25 11:41:26;;;;;;;32.08;15.15;;;13.10;99.90;;;;;;5086894;27;20278;-49
2022/03/25 11:44:23;;;;;;;30.73;16.50;;;13.20;99.90;;;;;;5082078;28;20235;-43
2022/03/25 11:47:15;;;;;;;29.75;18.52;;;13.20;99.90;;;;;;5100977;27;20576;-45
2022/03/25 11:49:43;;;;;;;27.88;15.20;;;13.30;99.90;;;;;;5098500;27;20523;-46
2022/03/25 11:52:29;;;;;;;29.65;14.85;;;13.50;99.90;;;;;;5096722;27;20204;-47
2022/03/25 11:54:58;;;;;;;24.05;12.82;;;13.40;99.90;;;;;;5105153;27;20466;-45
2022/03/25 11:57:29;;;;;;;21.92;12.55;;;13.50;99.90;;;;;;5075751;27;20503;-45
2022/03/25 11:59:57;;;;;;;18.70;11.48;;;13.50;99.90;;;;;;5081502;27;20215;-48
2022/03/25 12:02:26;;;;;;;41.13;10.75;;;13.50;99.90;;;;;;5082603;27;20465;-43
2022/03/25 12:04:53;;;;;;;23.40;10.35;;;13.50;99.90;;;;;;5090558;27;20216;-44
2022/03/25 12:07:20;;;;;;;25.65;9.38;;;13.60;99.90;;;;;;5097020;27;20372;-49
2022/03/25 12:09:47;;;;;;;17.48;9.20;;;13.70;99.90;;;;;;5100676;27;20204;-43
2022/03/25 12:12:14;;;;;;;20.65;10.07;;;13.70;99.90;;;;;;5080850;28;20208;-50
2022/03/25 12:15:10;;;;;;;17.75;9.98;;;13.70;99.90;;;;;;5070438;27;20396;-43
2022/03/25 12:17:37;;;;;;;35.25;10.32;;;13.70;99.90;;;;;;5080852;27;20492;-44
2022/03/25 12:20:05;;;;;;;22.00;10.32;;;13.80;99.90;;;;;;5085080;27;20199;-49
2022/03/25 12:23:07;;;;;;;21.38;10.35;;;13.80;99.90;;;;;;5089408;27;20788;-44
2022/03/25 12:25:34;;;;;;;22.30;9.60;;;13.80;99.90;;;;;;5099747;27;20230;-44
2022/03/25 12:28:01;;;;;;;15.90;8.77;;;13.70;99.90;;;;;;5093094;27;20253;-46
2022/03/25 12:30:36;;;;;;;21.25;10.95;;;13.70;99.90;;;;;;5090180;27;20679;-44
2022/03/25 12:33:07;;;;;;;20.33;9.82;;;13.70;99.90;;;;;;5080997;27;20234;-45
2022/03/25 12:35:37;;;;;;;23.55;11.98;;;13.80;99.90;;;;;;5079552;28;21045;-45
2022/03/25 12:38:22;;;;;;;21.50;10.95;;;13.70;99.90;;;;;;5084957;27;20206;-48
2022/03/25 12:40:52;;;;;;;27.48;11.98;;;13.80;99.90;;;;;;5100480;27;20410;-49
2022/03/25 12:43:19;;;;;;;22.42;11.77;;;13.70;99.90;;;;;;5073339;27;20219;-48